createdAt,value
2024-03-05T00:00:12.064Z,95880.91
2024-03-05T00:03:02.893Z,95880.65
2024-03-05T00:05:31.438Z,95877.09
2024-03-05T00:07:59.551Z,95880.55
2024-03-05T00:10:27.701Z,95883.63
2024-03-05T00:12:55.977Z,95889.59
2024-03-05T00:15:24.003Z,95891.63
2024-03-05T00:17:52.062Z,95888.73
2024-03-05T00:20:20.532Z,95894.78
2024-03-05T00:22:49.446Z,95890.53
2024-03-05T00:25:18.219Z,95889.26
2024-03-05T00:27:46.361Z,95890.09
2024-03-05T00:30:15.504Z,95892.33
2024-03-05T00:32:43.872Z,95894.39
2024-03-05T00:35:12.108Z,95893.64
2024-03-05T00:37:40.571Z,95894.23
2024-03-05T00:40:10.020Z,95891.63
2024-03-05T00:42:39.087Z,95891.70
2024-03-05T00:45:13.264Z,95892.73
2024-03-05T00:47:41.611Z,95892.14
2024-03-05T00:50:14.238Z,95893.61
2024-03-05T00:52:42.582Z,95895.32
2024-03-05T00:55:10.707Z,95895.81
2024-03-05T00:57:39.074Z,95894.39
2024-03-05T01:00:08.082Z,95896.66
2024-03-05T01:02:36.662Z,95892.04
2024-03-05T01:05:08.412Z,95896.20
2024-03-05T01:07:37.764Z,95895.14
2024-03-05T01:10:07.008Z,95899.90
2024-03-05T01:12:35.294Z,95895.30
2024-03-05T01:15:04.337Z,95894.95
2024-03-05T01:17:33.642Z,95896.69
2024-03-05T01:20:01.817Z,95895.73
2024-03-05T01:22:30.006Z,95892.86
2024-03-05T01:24:58.211Z,95894.66
2024-03-05T01:27:26.453Z,95895.98
2024-03-05T01:29:54.508Z,95897.77
2024-03-05T01:32:23.117Z,95901.16
2024-03-05T01:34:51.306Z,95898.09
2024-03-05T01:37:19.498Z,95898.63
2024-03-05T01:39:47.548Z,95898.58
2024-03-05T01:42:15.664Z,95904.26
2024-03-05T01:44:44.024Z,95903.49
2024-03-05T01:47:12.473Z,95907.05
2024-03-05T01:49:40.627Z,95908.70
2024-03-05T01:52:08.627Z,95904.23
2024-03-05T01:54:36.606Z,95903.29
2024-03-05T01:57:04.780Z,95903.04
2024-03-05T01:59:32.915Z,95902.91
2024-03-05T02:02:01.070Z,95899.89
2024-03-05T02:04:29.189Z,95900.52
2024-03-05T02:06:57.436Z,95906.88
2024-03-05T02:09:25.640Z,95905.19
2024-03-05T02:11:59.172Z,95903.31
2024-03-05T02:14:27.994Z,95906.02
2024-03-05T02:16:57.457Z,95907.77
2024-03-05T02:19:25.627Z,95902.91
2024-03-05T02:22:03.632Z,95902.90
2024-03-05T02:24:31.967Z,95900.30
2024-03-05T02:27:03.611Z,95900.11
2024-03-05T02:29:32.514Z,95906.77
2024-03-05T02:32:00.650Z,95912.69
2024-03-05T02:34:29.132Z,95918.25
2024-03-05T02:36:59.008Z,95917.47
2024-03-05T02:39:28.473Z,95922.00
2024-03-05T02:41:56.662Z,95919.94
2024-03-05T02:44:24.750Z,95916.17
2024-03-05T02:46:53.129Z,95916.70
2024-03-05T02:49:21.302Z,95923.31
2024-03-05T02:51:49.453Z,95927.33
2024-03-05T02:54:18.185Z,95930.51
2024-03-05T02:56:46.486Z,95928.48
2024-03-05T02:59:14.523Z,95929.52
2024-03-05T03:01:47.506Z,95931.91
2024-03-05T03:04:16.597Z,95932.80
2024-03-05T03:06:44.862Z,95932.83
2024-03-05T03:09:12.977Z,95936.69
2024-03-05T03:11:43.149Z,95935.89
2024-03-05T03:14:13.079Z,95930.88
2024-03-05T03:16:44.648Z,95929.16
2024-03-05T03:19:13.509Z,95932.91
2024-03-05T03:21:42.348Z,95936.32
2024-03-05T03:24:13.467Z,95940.35
2024-03-05T03:26:41.542Z,95943.39
2024-03-05T03:29:12.511Z,95944.61
2024-03-05T03:31:47.117Z,95944.70
2024-03-05T03:34:18.517Z,95939.37
2024-03-05T03:36:46.763Z,95942.72
2024-03-05T03:39:24.862Z,95949.70
2024-03-05T03:41:56.791Z,95946.64
2024-03-05T03:44:24.858Z,95947.11
2024-03-05T03:46:53.266Z,95945.88
2024-03-05T03:49:26.145Z,95945.89
2024-03-05T03:51:55.227Z,95946.42
2024-03-05T03:54:24.152Z,95950.02
2024-03-05T03:56:52.796Z,95949.55
2024-03-05T03:59:21.465Z,95948.06
2024-03-05T04:01:51.145Z,95949.17
2024-03-05T04:04:19.432Z,95952.88
2024-03-05T04:06:47.590Z,95958.11
2024-03-05T04:09:15.792Z,95956.20
2024-03-05T04:11:44.013Z,95960.00
2024-03-05T04:14:12.366Z,95955.55
2024-03-05T04:16:41.277Z,95956.09
2024-03-05T04:19:09.830Z,95953.13
2024-03-05T04:21:43.833Z,95956.69
2024-03-05T04:24:15.121Z,95955.19
2024-03-05T04:26:43.754Z,95954.90
2024-03-05T04:29:17.874Z,95954.17
2024-03-05T04:31:56.364Z,95954.52
2024-03-05T04:34:24.785Z,95951.08
2024-03-05T04:36:55.621Z,95949.59
2024-03-05T04:39:25.242Z,95948.27
2024-03-05T04:41:53.506Z,95948.63
2024-03-05T04:44:21.852Z,95946.16
2024-03-05T04:46:50.208Z,95949.29
2024-03-05T04:49:18.557Z,95950.16
2024-03-05T04:51:46.734Z,95952.89
2024-03-05T04:54:15.630Z,95951.52
2024-03-05T04:56:43.817Z,95953.83
2024-03-05T04:59:11.961Z,95953.54
2024-03-05T05:01:41.075Z,95950.06
2024-03-05T05:04:09.279Z,95952.60
2024-03-05T05:06:37.296Z,95955.38
2024-03-05T05:09:06.802Z,95955.64
2024-03-05T05:11:35.261Z,95961.48
2024-03-05T05:14:04.188Z,95961.71
2024-03-05T05:16:32.776Z,95961.84
2024-03-05T05:19:01.011Z,95963.50
2024-03-05T05:21:29.114Z,95967.05
2024-03-05T05:23:57.204Z,95966.42
2024-03-05T05:26:25.307Z,95965.73
2024-03-05T05:28:53.738Z,95971.14
2024-03-05T05:31:27.967Z,95971.95
2024-03-05T05:33:59.003Z,95973.63
2024-03-05T05:36:27.103Z,95976.52
2024-03-05T05:38:55.271Z,95978.23
2024-03-05T05:41:23.273Z,95977.21
2024-03-05T05:43:51.603Z,95980.78
2024-03-05T05:46:23.053Z,95975.11
2024-03-05T05:48:51.277Z,95978.58
2024-03-05T05:51:19.812Z,95982.84
2024-03-05T05:53:47.882Z,95985.73
2024-03-05T05:56:16.915Z,95990.23
2024-03-05T05:58:45.674Z,95992.80
2024-03-05T06:01:15.316Z,95992.48
2024-03-05T06:03:46.418Z,95994.14
2024-03-05T06:06:17.924Z,95996.05
2024-03-05T06:08:47.298Z,95996.85
2024-03-05T06:11:15.643Z,95994.29
2024-03-05T06:13:45.015Z,95997.33
2024-03-05T06:16:13.823Z,95996.95
2024-03-05T06:18:42.505Z,95993.02
2024-03-05T06:21:10.578Z,95994.71
2024-03-05T06:23:38.813Z,95996.54
2024-03-05T06:26:08.622Z,95999.47
2024-03-05T06:28:39.259Z,95999.30
2024-03-05T06:31:07.552Z,96001.11
2024-03-05T06:33:35.638Z,96002.17
2024-03-05T06:36:07.755Z,96004.44
2024-03-05T06:38:36.065Z,96007.21
2024-03-05T06:41:04.470Z,96004.29
2024-03-05T06:43:38.709Z,96003.88
2024-03-05T06:46:11.002Z,96005.47
2024-03-05T06:48:48.479Z,96005.05
2024-03-05T06:51:32.837Z,96004.43
2024-03-05T06:54:19.922Z,96006.14
2024-03-05T06:56:47.949Z,96008.17
2024-03-05T06:59:16.079Z,96010.30
2024-03-05T07:01:44.768Z,96010.83
2024-03-05T07:04:12.866Z,96008.89
2024-03-05T07:06:40.959Z,96010.52
2024-03-05T07:09:12.833Z,96010.20
2024-03-05T07:11:41.364Z,96009.84
2024-03-05T07:14:09.472Z,96011.20
2024-03-05T07:16:37.753Z,96011.74
2024-03-05T07:19:06.003Z,96013.80
2024-03-05T07:21:35.019Z,96017.64
2024-03-05T07:24:03.694Z,96017.29
2024-03-05T07:26:35.802Z,96018.64
2024-03-05T07:29:04.213Z,96018.87
2024-03-05T07:31:33.033Z,96020.40
2024-03-05T07:34:01.305Z,96020.27
2024-03-05T07:36:29.474Z,96019.42
2024-03-05T07:38:58.183Z,96021.41
2024-03-05T07:41:33.082Z,96021.20
2024-03-05T07:44:04.739Z,96021.45
2024-03-05T07:46:34.891Z,96022.05
2024-03-05T07:49:03.829Z,96020.98
2024-03-05T07:51:41.009Z,96023.60
2024-03-05T07:54:14.230Z,96022.11
2024-03-05T07:56:42.827Z,96023.70
2024-03-05T07:59:11.850Z,96023.20
2024-03-05T08:01:40.145Z,96018.81
2024-03-05T08:04:08.549Z,96019.42
2024-03-05T08:06:36.774Z,96015.36
2024-03-05T08:09:05.233Z,96015.13
2024-03-05T08:11:35.287Z,96013.96
2024-03-05T08:14:05.192Z,96011.24
2024-03-05T08:16:35.429Z,96010.59
2024-03-05T08:19:05.376Z,96010.17
2024-03-05T08:21:36.041Z,96009.43
2024-03-05T08:24:04.891Z,96012.70
2024-03-05T08:26:33.111Z,96012.20
2024-03-05T08:29:01.510Z,96015.28
2024-03-05T08:31:30.115Z,96011.96
2024-03-05T08:33:58.533Z,96011.48
2024-03-05T08:36:26.968Z,96012.61
2024-03-05T08:38:55.130Z,96011.85
2024-03-05T08:41:23.077Z,96011.60
2024-03-05T08:43:51.337Z,96010.63
2024-03-05T08:46:20.826Z,96010.42
2024-03-05T08:48:48.956Z,96013.11
2024-03-05T08:51:17.204Z,96014.32
2024-03-05T08:53:45.336Z,96012.37
2024-03-05T08:56:14.643Z,96009.86
2024-03-05T08:58:44.255Z,96010.82
2024-03-05T09:01:14.388Z,96010.20
2024-03-05T09:03:42.925Z,96006.77
2024-03-05T09:06:11.037Z,96006.87
2024-03-05T09:08:41.895Z,96006.10
2024-03-05T09:11:10.335Z,96007.81
2024-03-05T09:13:45.022Z,96005.66
2024-03-05T09:16:16.439Z,96006.41
2024-03-05T09:18:44.594Z,96007.80
2024-03-05T09:21:13.375Z,96011.48
2024-03-05T09:23:41.712Z,96009.77
2024-03-05T09:26:09.921Z,96007.56
2024-03-05T09:28:38.384Z,96006.89
2024-03-05T09:31:06.741Z,96009.35
2024-03-05T09:33:35.077Z,96006.55
2024-03-05T09:36:06.162Z,96006.54
2024-03-05T09:38:35.225Z,96002.27
2024-03-05T09:41:06.039Z,96001.90
2024-03-05T09:43:34.692Z,95999.70
2024-03-05T09:46:06.515Z,95998.04
2024-03-05T09:48:35.055Z,95997.83
2024-03-05T09:51:03.212Z,95998.05
2024-03-05T09:53:31.189Z,95997.30
2024-03-05T09:55:59.317Z,95998.89
2024-03-05T09:58:34.316Z,96000.11
2024-03-05T10:01:07.323Z,95994.63
2024-03-05T10:03:36.554Z,95996.48
2024-03-05T10:06:06.280Z,95996.59
2024-03-05T10:08:34.685Z,95991.48
2024-03-05T10:11:04.422Z,95987.48
2024-03-05T10:13:36.624Z,95989.52
2024-03-05T10:16:23.844Z,95985.64
2024-03-05T10:18:52.138Z,95984.98
2024-03-05T10:21:22.779Z,95986.89
2024-03-05T10:24:01.880Z,95982.77
2024-03-05T10:26:31.456Z,95977.81
2024-03-05T10:29:02.042Z,95974.63
2024-03-05T10:31:30.148Z,95974.40
2024-03-05T10:33:59.337Z,95972.13
2024-03-05T10:36:31.583Z,95967.50
2024-03-05T10:38:59.968Z,95958.13
2024-03-05T10:41:43.445Z,95958.11
2024-03-05T10:44:18.792Z,95956.16
2024-03-05T10:46:48.399Z,95953.31
2024-03-05T10:49:18.361Z,95956.41
2024-03-05T10:51:46.388Z,95955.17
2024-03-05T10:54:14.536Z,95951.15
2024-03-05T10:56:44.809Z,95946.76
2024-03-05T10:59:19.278Z,95943.73
2024-03-05T11:01:47.543Z,95942.81
2024-03-05T11:04:19.909Z,95941.67
2024-03-05T11:06:48.592Z,95938.52
2024-03-05T11:09:23.156Z,95941.52
2024-03-05T11:11:58.446Z,95942.10
2024-03-05T11:14:26.596Z,95940.41
2024-03-05T11:16:58.945Z,95937.95
2024-03-05T11:19:30.144Z,95933.10
2024-03-05T11:22:00.005Z,95929.80
2024-03-05T11:24:28.356Z,95921.10
2024-03-05T11:27:03.335Z,95920.66
2024-03-05T11:29:31.407Z,95919.80
2024-03-05T11:31:59.878Z,95915.49
2024-03-05T11:34:29.198Z,95916.23
2024-03-05T11:37:12.333Z,95915.67
2024-03-05T11:39:45.628Z,95918.16
2024-03-05T11:42:20.738Z,95919.57
2024-03-05T11:44:52.685Z,95914.39
2024-03-05T11:47:22.362Z,95912.18
2024-03-05T11:49:51.031Z,95909.02
2024-03-05T11:52:23.429Z,95907.22
2024-03-05T11:54:59.546Z,95906.80
2024-03-05T11:57:28.878Z,95909.11
2024-03-05T11:59:57.024Z,95907.90
2024-03-05T12:02:25.383Z,95908.23
2024-03-05T12:04:54.773Z,95906.55
2024-03-05T12:07:23.889Z,95901.92
2024-03-05T12:09:57.132Z,95901.45
2024-03-05T12:12:26.074Z,95896.21
2024-03-05T12:14:55.375Z,95897.52
2024-03-05T12:17:24.394Z,95896.02
2024-03-05T12:20:09.765Z,95891.92
2024-03-05T12:22:41.669Z,95893.19
2024-03-05T12:25:11.496Z,95887.75
2024-03-05T12:27:39.849Z,95884.85
2024-03-05T12:30:08.771Z,95887.39
2024-03-05T12:32:38.034Z,95884.54
2024-03-05T12:35:07.237Z,95883.62
2024-03-05T12:37:37.243Z,95879.49
2024-03-05T12:40:08.542Z,95879.83
2024-03-05T12:42:36.972Z,95879.14
2024-03-05T12:45:11.006Z,95874.77
2024-03-05T12:47:39.823Z,95877.70
2024-03-05T12:50:09.211Z,95875.15
2024-03-05T12:52:37.945Z,95874.39
2024-03-05T12:55:08.532Z,95871.52
2024-03-05T12:57:36.891Z,95872.99
2024-03-05T13:00:14.142Z,95869.48
2024-03-05T13:02:43.282Z,95870.44
2024-03-05T13:05:11.780Z,95867.29
2024-03-05T13:07:40.267Z,95864.29
2024-03-05T13:10:12.155Z,95863.30
2024-03-05T13:12:43.108Z,95861.95
2024-03-05T13:15:12.206Z,95865.33
2024-03-05T13:17:40.338Z,95862.61
2024-03-05T13:20:19.966Z,95869.10
2024-03-05T13:22:55.385Z,95866.01
2024-03-05T13:25:26.175Z,95862.90
2024-03-05T13:27:54.260Z,95863.63
2024-03-05T13:30:22.676Z,95862.11
2024-03-05T13:32:51.642Z,95861.25
2024-03-05T13:35:20.142Z,95859.31
2024-03-05T13:37:48.894Z,95865.60
2024-03-05T13:40:20.371Z,95863.92
2024-03-05T13:42:49.438Z,95860.13
2024-03-05T13:45:19.387Z,95860.80
2024-03-05T13:47:47.828Z,95859.84
2024-03-05T13:50:17.786Z,95858.98
2024-03-05T13:52:49.408Z,95861.81
2024-03-05T13:55:18.060Z,95859.05
2024-03-05T13:57:48.786Z,95856.09
2024-03-05T14:00:22.125Z,95859.59
2024-03-05T14:02:50.444Z,95861.71
2024-03-05T14:05:19.192Z,95860.40
2024-03-05T14:07:48.579Z,95861.71
2024-03-05T14:10:17.180Z,95860.94
2024-03-05T14:12:50.666Z,95861.67
2024-03-05T14:15:23.061Z,95856.73
2024-03-05T14:17:52.201Z,95861.09
2024-03-05T14:20:25.986Z,95860.67
2024-03-05T14:22:55.332Z,95863.52
2024-03-05T14:25:24.072Z,95866.27
2024-03-05T14:27:52.611Z,95866.87
2024-03-05T14:30:21.129Z,95868.05
2024-03-05T14:32:49.729Z,95868.58
2024-03-05T14:35:19.265Z,95869.73
2024-03-05T14:37:47.836Z,95865.27
2024-03-05T14:40:16.704Z,95866.11
2024-03-05T14:42:45.719Z,95863.02
2024-03-05T14:45:17.528Z,95866.66
2024-03-05T14:47:47.689Z,95869.78
2024-03-05T14:50:16.127Z,95872.44
2024-03-05T14:52:44.394Z,95869.73
2024-03-05T14:55:14.247Z,95876.65
2024-03-05T14:57:48.057Z,95872.44
2024-03-05T15:00:17.269Z,95875.48
2024-03-05T15:02:48.808Z,95879.05
2024-03-05T15:05:18.046Z,95880.33
2024-03-05T15:07:46.308Z,95880.96
2024-03-05T15:10:16.151Z,95877.41
2024-03-05T15:12:49.399Z,95877.98
2024-03-05T15:15:18.081Z,95880.21
2024-03-05T15:17:46.970Z,95880.43
2024-03-05T15:20:17.269Z,95883.24
2024-03-05T15:22:46.068Z,95885.41
2024-03-05T15:25:14.844Z,95888.84
2024-03-05T15:27:45.759Z,95891.75
2024-03-05T15:30:17.168Z,95897.83
2024-03-05T15:32:51.688Z,95902.12
2024-03-05T15:35:21.271Z,95901.56
2024-03-05T15:37:50.344Z,95909.85
2024-03-05T15:40:20.905Z,95915.02
2024-03-05T15:42:50.913Z,95919.12
2024-03-05T15:45:23.948Z,95925.21
2024-03-05T15:47:54.145Z,95928.39
2024-03-05T15:50:23.949Z,95934.34
2024-03-05T15:52:53.479Z,95939.80
2024-03-05T15:55:25.175Z,95949.23
2024-03-05T15:58:02.808Z,95957.01
2024-03-05T16:00:37.759Z,95962.15
2024-03-05T16:03:11.339Z,95972.02
2024-03-05T16:05:51.856Z,95979.59
2024-03-05T16:08:29.658Z,95985.21
2024-03-05T16:11:00.127Z,95988.30
2024-03-05T16:13:30.660Z,95991.02
2024-03-05T16:15:59.151Z,95998.77
2024-03-05T16:18:27.793Z,96006.41
2024-03-05T16:21:01.326Z,96009.77
2024-03-05T16:23:29.597Z,96017.19
2024-03-05T16:25:58.341Z,96024.67
2024-03-05T16:28:26.498Z,96030.91
2024-03-05T16:30:54.561Z,96035.05
2024-03-05T16:33:23.054Z,96031.64
2024-03-05T16:35:53.392Z,96041.17
2024-03-05T16:38:21.636Z,96047.84
2024-03-05T16:40:50.265Z,96051.67
2024-03-05T16:43:18.616Z,96057.95
2024-03-05T16:45:48.028Z,96061.11
2024-03-05T16:48:16.328Z,96064.91
2024-03-05T16:50:45.188Z,96069.02
2024-03-05T16:53:13.490Z,96073.05
2024-03-05T16:55:43.062Z,96077.39
2024-03-05T16:58:15.049Z,96084.39
2024-03-05T17:00:56.536Z,96088.62
2024-03-05T17:03:29.865Z,96090.54
2024-03-05T17:05:58.598Z,96092.67
2024-03-05T17:08:28.090Z,96092.13
2024-03-05T17:10:56.323Z,96096.01
2024-03-05T17:13:27.795Z,96097.45
2024-03-05T17:16:00.285Z,96097.66
2024-03-05T17:18:32.002Z,96103.17
2024-03-05T17:21:00.997Z,96108.93
2024-03-05T17:23:30.763Z,96110.77
2024-03-05T17:26:00.078Z,96110.24
2024-03-05T17:28:28.820Z,96105.27
2024-03-05T17:31:00.348Z,96110.29
2024-03-05T17:33:29.189Z,96111.27
2024-03-05T17:35:58.517Z,96110.48
2024-03-05T17:38:30.339Z,96117.04
2024-03-05T17:41:02.016Z,96117.16
2024-03-05T17:43:31.517Z,96117.68
2024-03-05T17:46:00.420Z,96118.39
2024-03-05T17:48:29.166Z,96117.37
2024-03-05T17:50:58.283Z,96117.04
2024-03-05T17:53:26.750Z,96119.52
2024-03-05T17:55:55.422Z,96121.89
2024-03-05T17:58:24.390Z,96126.16
2024-03-05T18:00:52.858Z,96125.46
2024-03-05T18:03:24.454Z,96129.70
2024-03-05T18:05:54.133Z,96126.04
2024-03-05T18:08:22.899Z,96128.09
2024-03-05T18:10:51.508Z,96125.27
2024-03-05T18:13:22.024Z,96128.32
2024-03-05T18:15:52.245Z,96129.66
2024-03-05T18:18:21.060Z,96135.48
2024-03-05T18:20:50.165Z,96140.17
2024-03-05T18:23:18.682Z,96145.21
2024-03-05T18:25:49.144Z,96147.05
2024-03-05T18:28:21.854Z,96149.59
2024-03-05T18:30:51.626Z,96154.23
2024-03-05T18:33:20.130Z,96158.20
2024-03-05T18:35:48.695Z,96158.39
2024-03-05T18:38:24.798Z,96163.28
2024-03-05T18:41:00.242Z,96160.00
2024-03-05T18:43:29.927Z,96159.80
2024-03-05T18:46:00.949Z,96161.74
2024-03-05T18:48:29.248Z,96163.85
2024-03-05T18:50:58.111Z,96167.70
2024-03-05T18:53:35.938Z,96171.92
2024-03-05T18:56:13.030Z,96177.52
2024-03-05T18:58:42.588Z,96176.43
2024-03-05T19:01:11.622Z,96177.67
2024-03-05T19:03:40.367Z,96181.38
2024-03-05T19:06:08.833Z,96183.03
2024-03-05T19:08:39.351Z,96185.05
2024-03-05T19:11:10.069Z,96186.88
2024-03-05T19:13:39.262Z,96189.71
2024-03-05T19:16:08.100Z,96191.65
2024-03-05T19:18:36.715Z,96195.91
2024-03-05T19:21:06.346Z,96200.89
2024-03-05T19:23:34.975Z,96201.23
2024-03-05T19:26:03.787Z,96199.16
2024-03-05T19:28:35.579Z,96198.98
2024-03-05T19:31:05.798Z,96199.30
2024-03-05T19:33:35.077Z,96197.48
2024-03-05T19:36:04.774Z,96192.73
2024-03-05T19:38:33.052Z,96193.40
2024-03-05T19:41:03.276Z,96194.55
2024-03-05T19:43:36.050Z,96190.93
2024-03-05T19:46:05.499Z,96191.24
2024-03-05T19:48:34.293Z,96186.48
2024-03-05T19:51:02.635Z,96179.67
2024-03-05T19:53:30.796Z,96179.73
2024-03-05T19:55:59.115Z,96176.17
2024-03-05T19:58:27.320Z,96175.67
2024-03-05T20:00:55.608Z,96175.76
2024-03-05T20:03:23.817Z,96171.16
2024-03-05T20:05:52.635Z,96172.70
2024-03-05T20:08:20.722Z,96167.78
2024-03-05T20:10:49.291Z,96165.52
2024-03-05T20:13:17.857Z,96164.50
2024-03-05T20:15:46.158Z,96165.98
2024-03-05T20:18:14.373Z,96166.45
2024-03-05T20:20:42.904Z,96165.57
2024-03-05T20:23:11.215Z,96166.89
2024-03-05T20:25:39.385Z,96168.06
2024-03-05T20:28:11.390Z,96171.98
2024-03-05T20:30:41.061Z,96170.98
2024-03-05T20:33:13.349Z,96171.55
2024-03-05T20:35:44.287Z,96170.84
2024-03-05T20:38:12.516Z,96169.56
2024-03-05T20:40:40.839Z,96170.71
2024-03-05T20:43:11.905Z,96164.69
2024-03-05T20:45:40.162Z,96166.04
2024-03-05T20:48:08.521Z,96163.48
2024-03-05T20:50:36.965Z,96162.36
2024-03-05T20:53:05.912Z,96164.78
2024-03-05T20:55:34.480Z,96163.30
2024-03-05T20:58:05.370Z,96164.73
2024-03-05T21:00:33.656Z,96166.40
2024-03-05T21:03:01.943Z,96166.25
2024-03-05T21:05:31.482Z,96166.89
2024-03-05T21:07:59.506Z,96169.41
2024-03-05T21:10:28.368Z,96170.19
2024-03-05T21:12:56.785Z,96170.79
2024-03-05T21:15:26.174Z,96168.71
2024-03-05T21:17:54.325Z,96170.59
2024-03-05T21:20:23.708Z,96173.03
2024-03-05T21:22:52.115Z,96175.27
2024-03-05T21:25:23.210Z,96177.13
2024-03-05T21:27:51.315Z,96181.51
2024-03-05T21:30:19.364Z,96182.45
2024-03-05T21:32:47.420Z,96184.23
2024-03-05T21:35:15.936Z,96187.36
2024-03-05T21:37:45.123Z,96184.59
2024-03-05T21:40:14.302Z,96190.64
2024-03-05T21:42:45.021Z,96199.35
2024-03-05T21:45:15.281Z,96201.89
2024-03-05T21:47:45.004Z,96207.20
2024-03-05T21:50:13.515Z,96210.58
2024-03-05T21:52:46.155Z,96211.48
2024-03-05T21:55:16.372Z,96219.48
2024-03-05T21:57:44.755Z,96226.86
2024-03-05T22:00:13.406Z,96230.33
2024-03-05T22:02:42.414Z,96238.02
2024-03-05T22:05:12.285Z,96240.15
2024-03-05T22:07:40.842Z,96242.75
2024-03-05T22:10:09.782Z,96239.11
2024-03-05T22:12:41.837Z,96244.48
2024-03-05T22:15:10.890Z,96241.48
2024-03-05T22:17:39.080Z,96243.55
2024-03-05T22:20:09.318Z,96241.86
2024-03-05T22:22:38.238Z,96242.59
2024-03-05T22:25:07.941Z,96238.60
2024-03-05T22:27:36.478Z,96240.05
2024-03-05T22:30:09.044Z,96242.20
2024-03-05T22:32:37.617Z,96242.33
2024-03-05T22:35:10.818Z,96241.36
2024-03-05T22:37:40.442Z,96243.41
2024-03-05T22:40:11.448Z,96246.21
2024-03-05T22:42:40.046Z,96251.27
2024-03-05T22:45:10.357Z,96247.34
2024-03-05T22:47:38.588Z,96251.16
2024-03-05T22:50:10.616Z,96257.06
2024-03-05T22:52:39.661Z,96254.52
2024-03-05T22:55:08.918Z,96255.72
2024-03-05T22:57:37.349Z,96255.53
2024-03-05T23:00:24.464Z,96251.94
2024-03-05T23:02:52.882Z,96249.45
2024-03-05T23:05:21.421Z,96248.89
2024-03-05T23:07:49.771Z,96254.67
2024-03-05T23:10:18.092Z,96257.15
2024-03-05T23:12:46.061Z,96262.75
2024-03-05T23:15:16.489Z,96262.59
2024-03-05T23:17:45.058Z,96261.66
2024-03-05T23:20:13.331Z,96261.71
2024-03-05T23:22:41.350Z,96260.53
2024-03-05T23:25:13.441Z,96263.27
2024-03-05T23:27:43.174Z,96258.76
2024-03-05T23:30:11.947Z,96251.92
2024-03-05T23:32:40.198Z,96255.52
2024-03-05T23:35:08.790Z,96255.61
2024-03-05T23:37:37.182Z,96254.23
2024-03-05T23:40:08.356Z,96254.45
2024-03-05T23:42:36.767Z,96255.85
2024-03-05T23:45:05.353Z,96250.50
2024-03-05T23:47:33.852Z,96249.83
2024-03-05T23:50:02.116Z,96248.41
2024-03-05T23:52:30.388Z,96247.85
2024-03-05T23:55:01.345Z,96249.63
2024-03-05T23:57:31.101Z,96248.25
2024-03-05T23:59:59.187Z,96248.27
